Weather at Sombor Airport [CLOSED]

Public forecast

Using degrees Celsius for public forecast. Weather courtesy of forecast.io.

Closest aviation weather report (METAR) to Sombor Airport

Closest report is Osijek Airport, 18.7 nm (34.7 km) SW.

2024/06/16 11:30 (retrieved 14 minutes ago)

LDOS 161130Z VRB05KT 9999 FEW043 28/16 Q1011

Closest aviation forecast (TAF) to Sombor Airport

Closest forecast is Osijek Airport, 18.7 nm (34.7 km) SW.

2024/06/16 06:27 (retrieved 5 hours ago)

TAF LDOS 160525Z 1606/1706 VRB02KT CAVOK TX28/1614Z TN17/1703Z BECMG 1607/1609 30008KT BECMG 1617/1619 VRB02KT